首页
METAR-TAF:

METAR-TAF

机场 :

瓦加杜古國際機場

瓦加杜古, 布吉納法索

纬度: 12-21N, 经度: 001-31W, 海拔: 316米

当前天气观测

该预报发布于1小时和45分钟前的18:00 UTC
风速2节,风向北转西北
温度 30°C
湿度 66%
气压 1010 hPa
能見度: 8000

METAR: DFFD 251800Z 34002KT 8000 NSC 30/23 Q1010 NOSIG

时间: 19:45 (19:45 UTC)

预报

该预报发布于2小时和45分钟前的17:00 UTC
预报有效从25日的 18点(UTC)到 26日的 24点(UTC)
风速8节,风向西南
能见度10公里或以上
少量云层高于2000英尺
短暂存在
从 25日的 20点(UTC)到 25日的 24点(UTC)
少量云层高于2000英尺
少量云层高于3300英尺, 积雨云.
雷暴
短暂存在
从 26日的 15点(UTC)到 26日的 22点(UTC)
能見度: 4000
散云层高于2000英尺
少量云层高于3300英尺, 积雨云.
雷暴, 雨

TAF: DFFD 251700Z 2518/2624 22008KT 9999 FEW020 TEMPO 2520/2524 TS FEW020 FEW033CB TEMPO 2615/2622 4000 TSRA SCT020 FEW033CB

超过4000个机场的气象观测和天气预报(METAR&TAF报告)。

可查询的气象台以黄色和红色小点在地图上表示。

将鼠标移到小点上方,可查看气象台名称。

然后点击查看天气观测和预报。

如需切换地图:点击带黑十字的绿色按钮放大地图;点击带横线的绿色按钮缩小地图;或者点击绿色箭头查看邻近地区的地图。


METAR-TAF: